الصفحة الرئيسية
METAR-TAF:

METAR-TAF

مطار :

Yokota, اليابان

دائرة عرض: 35-45N, خط طول: 139-21E, ارتفاع: 139 متر

مراقبة الطقس الحالي

تاريخ ووقت الإصدار 15 دقيقة قبل الساعة 02:55UTC
ريح 4 عقدة من الجنوب/الجنوب الشرقي
درجة الحرارة 30°درجة مئوية
الرطوبة 59%
ضغط 1007 hPa
الرؤية: 16.1 كم
غيوم قليلة على ارتفاع 3000 قدم
غيوم متفرقة على ارتفاع 14000 قدم
غيوم مفككة على ارتفاع 19000 قدم

METAR: RJTY 250255Z 16004KT 10SM FEW030 SCT140 BKN190 30/21 A2973 RMK AO2A SLP066 T03000213 57009 $

زمن: 12:10 (03:10 UTC)

توقعات

تاريخ ووقت الإصدار 1ساعة و 10 دقيقة قبل الساعة 02:00UTC
التوقعات صالحة من25 الساعة 01 UTC إلى 26 الساعة 03 UTC
ريح 9 عقدة من الجنوب
الرؤية 10 كم أو أكثر
غيوم قليلة على ارتفاع 3000 قدم
غيوم متفرقة على ارتفاع 15000 قدم
أصبح
من 25 الساعة 09 UTC إلى 25 الساعة 10 UTC
ريح 6 عقدةمن اتجاهات متغيرة
الرؤية 10 كم أو أكثر
غيوم متفرقة على ارتفاع 12000 قدم
غيوم مفككة على ارتفاع 15000 قدم

TAF: RJTY 250200Z 2501/2603 18009KT 9999 FEW030 SCT150 QNH2971INS BECMG 2509/2510 VRB06KT 9999 SCT120 BKN150 QNH2975INS TX32/2506Z TN22/2520Z

أرصاد الطقس والتوقعات من أكثر من 4000 مطار (تقارير الطقس للمطار METAR والتنبؤ بالطقس بالمطارTAF).

المحطات المتاحة هي النقط الصفراء والحمراء على الخريطة.

حرك المؤشر فوق النقطة لمعرفة اسم المحطة.

ثم انقر لمعرفة أرصاد وتوقعات الطقس.

لتغيير الخارطة: اضغط على الأزرار الخضراء مع رمز الصليب الأسود للتكبير. على الزر الأخضر مع شرطة للتصغير، أو على الأسهم الخضراء للخرائط المجاورة.


METAR-TAF: